Time;durP1;ratioP1;P1;durP2;ratioP2;P2;SDS_P1;SDS_P2;PMS_P1;PMS_P2;Temp;Humidity;BMP_temperature;BMP_pressure;BME280_temperature;BME280_humidity;BME280_pressure;Samples;Min_cycle;Max_cycle;Signal;HPM_P1;HPM_P2
2023/07/06 00:02:22;;;;;;;14.70;13.50;;;;;;;19.11;100.00;92810.28;5072304;28;20199;-74
2023/07/06 00:04:48;;;;;;;15.33;13.83;;;;;;;19.24;100.00;92832.28;5072788;28;20240;-74
2023/07/06 00:07:20;;;;;;;14.10;13.00;;;;;;;19.12;100.00;92825.84;5073372;28;20188;-74
2023/07/06 00:09:46;;;;;;;16.37;14.80;;;;;;;19.09;100.00;92823.84;5072839;28;20246;-73
2023/07/06 00:12:11;;;;;;;14.98;13.48;;;;;;;19.15;100.00;92832.34;5072661;28;20208;-73
2023/07/06 00:14:37;;;;;;;13.63;12.70;;;;;;;19.16;100.00;92823.28;5067306;28;20235;-73
2023/07/06 00:17:12;;;;;;;14.43;13.33;;;;;;;19.14;100.00;92820.22;5071663;28;20180;-73
2023/07/06 00:19:39;;;;;;;14.80;13.33;;;;;;;19.04;100.00;92820.59;5063798;28;20227;-73
2023/07/06 00:22:04;;;;;;;15.13;13.87;;;;;;;18.83;100.00;92811.91;5070773;28;20185;-74
2023/07/06 00:24:30;;;;;;;14.90;13.53;;;;;;;19.03;100.00;92814.56;5072034;28;20269;-74
2023/07/06 00:26:56;;;;;;;15.53;14.03;;;;;;;19.04;100.00;92812.66;5071041;28;20180;-74
2023/07/06 00:29:21;;;;;;;14.30;12.98;;;;;;;19.06;100.00;92815.75;5071646;28;20199;-74
2023/07/06 00:32:04;;;;;;;14.82;13.75;;;;;;;18.99;100.00;92812.84;5051319;28;20276;-73
2023/07/06 00:34:33;;;;;;;13.67;12.57;;;;;;;18.70;100.00;92805.00;5043645;28;20243;-73
2023/07/06 00:36:59;;;;;;;14.73;13.53;;;;;;;18.91;100.00;92811.06;5070628;28;20188;-73
2023/07/06 00:39:25;;;;;;;14.93;13.73;;;;;;;18.73;100.00;92814.94;5071831;28;20194;-73
2023/07/06 00:41:52;;;;;;;14.43;13.10;;;;;;;18.74;100.00;92814.63;5071694;28;20818;-74
2023/07/06 00:44:52;;;;;;;14.63;13.43;;;;;;;18.82;100.00;92813.78;5054208;28;20192;-74
2023/07/06 00:47:42;;;;;;;14.23;13.13;;;;;;;18.66;100.00;92772.38;5060267;28;20224;-73
2023/07/06 00:50:16;;;;;;;14.07;12.87;;;;;;;18.83;100.00;92810.03;5071586;28;20219;-73
2023/07/06 00:52:49;;;;;;;14.70;13.40;;;;;;;18.64;100.00;92785.16;5070893;28;20626;-73
2023/07/06 00:55:21;;;;;;;13.50;12.60;;;;;;;18.75;100.00;92804.81;5070156;28;20253;-74
2023/07/06 00:57:51;;;;;;;14.80;13.37;;;;;;;18.67;100.00;92795.84;5072120;28;20209;-73
2023/07/06 01:00:21;;;;;;;15.73;14.27;;;;;;;18.73;100.00;92802.50;5070873;28;20228;-74
2023/07/06 01:02:48;;;;;;;13.83;12.73;;;;;;;18.71;100.00;92814.47;5072015;28;20175;-73
2023/07/06 01:05:14;;;;;;;14.13;13.13;;;;;;;18.48;100.00;92810.59;5071253;28;20240;-74
2023/07/06 01:07:44;;;;;;;14.50;13.40;;;;;;;18.60;100.00;92808.81;5071905;28;20862;-74
2023/07/06 01:10:10;;;;;;;14.83;13.63;;;;;;;18.57;100.00;92795.44;5070685;28;20226;-74
2023/07/06 01:12:35;;;;;;;13.83;12.50;;;;;;;18.43;100.00;92789.63;5065590;28;20304;-73
2023/07/06 01:15:01;;;;;;;14.77;13.43;;;;;;;18.53;100.00;92795.34;5071207;28;20367;-74
2023/07/06 01:17:33;;;;;;;15.07;13.80;;;;;;;18.45;100.00;92777.66;5071966;28;20179;-73
2023/07/06 01:20:03;;;;;;;14.10;12.73;;;;;;;18.52;100.00;92793.00;5053289;28;20280;-73
2023/07/06 01:22:56;;;;;;;14.13;13.03;;;;;;;18.50;100.00;92789.91;5071383;28;20202;-74
2023/07/06 01:25:47;;;;;;;14.53;13.27;;;;;;;18.41;100.00;92791.84;5070734;28;20218;-73
2023/07/06 01:28:28;;;;;;;15.93;14.43;;;;;;;18.37;100.00;92790.91;5065398;28;20196;-74
2023/07/06 01:30:56;;;;;;;14.77;13.67;;;;;;;18.41;100.00;92783.91;5087022;28;20225;-73
2023/07/06 01:33:47;;;;;;;14.53;13.23;;;;;;;18.18;100.00;92780.75;5070502;28;20192;-74
2023/07/06 01:36:34;;;;;;;14.87;13.47;;;;;;;18.25;100.00;92781.03;5070655;28;20235;-71
2023/07/06 01:39:20;;;;;;;16.40;15.00;;;;;;;18.19;100.00;92774.41;5063721;28;20226;-72
2023/07/06 01:42:06;;;;;;;15.17;13.67;;;;;;;18.13;100.00;92774.91;5071270;28;20207;-72
2023/07/06 01:44:32;;;;;;;15.43;14.13;;;;;;;18.18;100.00;92772.81;5070264;28;20226;-71
2023/07/06 01:46:58;;;;;;;15.10;13.60;;;;;;;18.36;100.00;92782.22;5071421;28;20203;-71
2023/07/06 01:49:24;;;;;;;14.43;13.03;;;;;;;18.21;100.00;92782.75;5070617;28;20270;-71
2023/07/06 01:52:24;;;;;;;15.00;13.70;;;;;;;18.19;100.00;92778.91;5071277;28;20190;-71
2023/07/06 01:55:00;;;;;;;15.03;13.60;;;;;;;18.13;100.00;92774.91;5074352;28;20265;-70
2023/07/06 01:57:33;;;;;;;14.93;13.73;;;;;;;18.25;100.00;92788.19;5070826;28;20247;-72
2023/07/06 02:00:00;;;;;;;14.77;13.37;;;;;;;18.25;100.00;92788.97;5069800;28;20231;-71
2023/07/06 02:02:30;;;;;;;13.67;12.30;;;;;;;18.14;100.00;92779.06;5071006;28;20187;-72
2023/07/06 02:04:57;;;;;;;14.67;13.47;;;;;;;18.19;100.00;92784.19;5070705;28;20221;-72
2023/07/06 02:07:23;;;;;;;13.93;12.83;;;;;;;18.23;100.00;92779.78;5070742;28;20191;-71
2023/07/06 02:09:51;;;;;;;14.57;13.23;;;;;;;18.25;100.00;92774.97;5070459;28;20260;-71
2023/07/06 02:12:18;;;;;;;13.70;12.60;;;;;;;18.27;100.00;92781.47;5070465;28;20242;-71
2023/07/06 02:14:44;;;;;;;15.60;14.13;;;;;;;18.27;100.00;92778.81;5068608;28;20259;-71
2023/07/06 02:17:11;;;;;;;15.23;14.03;;;;;;;18.28;100.00;92783.03;5069693;28;20180;-71
2023/07/06 02:19:38;;;;;;;14.33;13.17;;;;;;;18.04;100.00;92776.81;5070005;28;20223;-71
2023/07/06 02:22:03;;;;;;;14.13;12.93;;;;;;;18.15;100.00;92762.91;5068246;28;20249;-72
2023/07/06 02:24:30;;;;;;;15.03;13.87;;;;;;;18.24;100.00;92770.78;5069787;28;20233;-71
2023/07/06 02:26:56;;;;;;;13.23;12.27;;;;;;;18.37;100.00;92769.75;5069797;28;20182;-71
2023/07/06 02:29:22;;;;;;;14.03;13.00;;;;;;;18.27;100.00;92764.84;5069619;28;20190;-71
2023/07/06 02:31:48;;;;;;;14.97;13.63;;;;;;;18.33;100.00;92758.28;5069397;28;20182;-71
2023/07/06 02:34:14;;;;;;;15.37;13.80;;;;;;;18.55;100.00;92766.69;5069510;28;20211;-71
2023/07/06 02:36:40;;;;;;;14.20;13.20;;;;;;;18.48;100.00;92745.28;5069732;28;20236;-72
2023/07/06 02:39:05;;;;;;;14.47;13.30;;;;;;;18.67;100.00;92763.34;5070086;28;20177;-72
2023/07/06 02:41:31;;;;;;;13.13;12.23;;;;;;;18.71;100.00;92758.94;5069537;28;20285;-72
2023/07/06 02:43:57;;;;;;;14.30;13.03;;;;;;;18.75;100.00;92767.78;5070901;28;20210;-72
2023/07/06 02:46:22;;;;;;;14.33;13.17;;;;;;;18.73;100.00;92760.19;5068807;28;20218;-71
2023/07/06 02:48:50;;;;;;;14.33;12.23;;;;;;;18.89;100.00;92757.69;5051758;28;20230;-72
2023/07/06 02:51:15;;;;;;;13.43;12.33;;;;;;;18.99;100.00;92754.63;5069489;28;20214;-72
2023/07/06 02:53:41;;;;;;;12.60;11.60;;;;;;;18.78;100.00;92753.91;5077141;28;20209;-72
2023/07/06 02:56:07;;;;;;;13.17;12.20;;;;;;;18.73;100.00;92757.53;5069513;28;20216;-72
2023/07/06 02:58:34;;;;;;;13.57;12.30;;;;;;;18.75;100.00;92752.69;5070149;28;20254;-71
2023/07/06 03:00:59;;;;;;;15.00;13.43;;;;;;;18.71;100.00;92746.50;5068807;28;20231;-71
2023/07/06 03:03:26;;;;;;;13.73;12.37;;;;;;;18.81;100.00;92761.19;5064351;28;20184;-72
2023/07/06 03:05:52;;;;;;;13.60;12.50;;;;;;;18.83;100.00;92740.50;5068616;28;20242;-72
2023/07/06 03:08:17;;;;;;;14.37;13.27;;;;;;;18.64;100.00;92753.41;5069803;28;20267;-72
2023/07/06 03:10:46;;;;;;;13.33;12.33;;;;;;;18.57;100.00;92742.56;5068962;28;20234;-72
2023/07/06 03:13:13;;;;;;;13.23;12.00;;;;;;;18.86;100.00;92755.72;5069437;28;20908;-71
2023/07/06 03:15:40;;;;;;;13.30;12.40;;;;;;;18.71;100.00;92743.84;5068972;28;20239;-71
2023/07/06 03:18:06;;;;;;;15.37;13.80;;;;;;;18.77;100.00;92765.59;5067768;28;20183;-72
2023/07/06 03:20:36;;;;;;;12.70;11.70;;;;;;;18.93;100.00;92761.22;5084038;28;20215;-71
2023/07/06 03:23:02;;;;;;;13.40;12.47;;;;;;;19.01;100.00;92757.72;5068937;28;20243;-72
2023/07/06 03:25:29;;;;;;;13.33;12.17;;;;;;;19.13;100.00;92755.13;5068862;28;20283;-72
2023/07/06 03:27:55;;;;;;;16.98;14.73;;;;;;;19.13;100.00;92749.81;5067973;28;20193;-72
2023/07/06 03:30:27;;;;;;;14.30;13.00;;;;;;;19.16;100.00;92762.41;5068669;28;20239;-72
2023/07/06 03:32:54;;;;;;;15.03;13.83;;;;;;;19.23;100.00;92757.38;5069231;28;20195;-71
2023/07/06 03:35:22;;;;;;;15.33;14.10;;;;;;;19.24;100.00;92750.22;5069156;28;20235;-72
2023/07/06 03:37:48;;;;;;;15.17;13.93;;;;;;;19.35;100.00;92746.06;5069319;28;20210;-71
2023/07/06 03:40:14;;;;;;;16.27;13.60;;;;;;;19.30;100.00;92733.03;5069078;28;20228;-70
2023/07/06 03:42:41;;;;;;;15.73;14.33;;;;;;;19.30;100.00;92730.38;5068478;28;20262;-72
2023/07/06 03:45:08;;;;;;;14.63;13.00;;;;;;;19.47;100.00;92746.84;5069203;28;20231;-71
2023/07/06 03:47:35;;;;;;;15.60;13.90;;;;;;;19.54;100.00;92733.06;5068623;28;20216;-72
2023/07/06 03:50:00;;;;;;;14.93;13.73;;;;;;;19.52;100.00;92740.56;5068734;28;20230;-72
2023/07/06 03:52:28;;;;;;;16.17;14.57;;;;;;;19.38;100.00;92738.22;5068853;28;20175;-71
2023/07/06 03:54:54;;;;;;;15.53;14.10;;;;;;;19.62;100.00;92750.72;5068168;28;20230;-71
2023/07/06 03:57:20;;;;;;;18.40;16.60;;;;;;;19.70;100.00;92749.84;5067860;28;20176;-70
2023/07/06 03:59:45;;;;;;;16.03;14.43;;;;;;;19.75;100.00;92753.03;5068153;28;20246;-72
2023/07/06 04:02:12;;;;;;;16.70;15.03;;;;;;;20.05;100.00;92753.59;5068691;28;20192;-71
2023/07/06 04:04:38;;;;;;;16.03;14.53;;;;;;;20.32;100.00;92752.94;5068757;28;20292;-72
2023/07/06 04:07:04;;;;;;;18.40;16.60;;;;;;;20.35;100.00;92757.56;5068869;28;20180;-71
2023/07/06 04:09:30;;;;;;;18.77;16.30;;;;;;;20.46;100.00;92758.66;5068505;28;20319;-71
2023/07/06 04:11:55;;;;;;;18.85;16.85;;;;;;;20.45;100.00;92760.53;5065914;28;20237;-72
2023/07/06 04:14:25;;;;;;;18.40;16.55;;;;;;;20.05;100.00;92749.06;5068318;28;20207;-69
2023/07/06 04:16:51;;;;;;;18.37;16.67;;;;;;;19.99;100.00;92770.81;5063122;28;20178;-69
2023/07/06 04:19:17;;;;;;;18.00;16.25;;;;;;;20.24;100.00;92759.91;5066289;28;20776;-68
2023/07/06 04:21:43;;;;;;;17.27;15.77;;;;;;;20.41;100.00;92761.53;5067179;28;20212;-69
2023/07/06 04:24:08;;;;;;;17.77;15.57;;;;;;;20.58;100.00;92762.06;5068084;28;20191;-69
2023/07/06 04:26:34;;;;;;;17.55;16.05;;;;;;;20.62;100.00;92762.16;5064255;28;20235;-69
2023/07/06 04:28:59;;;;;;;18.17;16.47;;;;;;;20.72;100.00;92766.22;5063572;28;20272;-69
2023/07/06 04:31:25;;;;;;;18.58;16.52;;;;;;;20.76;100.00;92772.41;5060113;28;20228;-69
2023/07/06 04:33:50;;;;;;;18.92;16.85;;;;;;;20.89;100.00;92774.66;5070910;28;20229;-69
2023/07/06 04:36:17;;;;;;;19.65;16.20;;;;;;;21.10;100.00;92774.50;5068050;28;20223;-69
2023/07/06 04:38:43;;;;;;;17.55;15.85;;;;;;;21.25;100.00;92779.06;5071890;28;20178;-69
2023/07/06 04:41:09;;;;;;;17.73;16.13;;;;;;;21.37;100.00;92776.38;5051871;28;20293;-70
2023/07/06 04:43:36;;;;;;;17.60;15.80;;;;;;;21.46;100.00;92779.66;5068355;28;20187;-69
2023/07/06 04:46:02;;;;;;;18.67;16.92;;;;;;;21.95;100.00;92775.56;5058751;28;20223;-70
2023/07/06 04:48:27;;;;;;;17.67;15.13;;;;;;;22.55;94.79;92772.44;5071742;28;20421;-69
2023/07/06 04:50:54;;;;;;;17.23;15.63;;;;;;;22.65;92.48;92782.53;5080841;28;20240;-68
2023/07/06 04:53:20;;;;;;;17.45;15.85;;;;;;;22.52;93.77;92775.81;5068611;28;20188;-67
2023/07/06 04:55:46;;;;;;;17.33;15.73;;;;;;;22.60;94.82;92772.16;5070841;28;20242;-69
2023/07/06 04:58:12;;;;;;;16.27;14.60;;;;;;;22.56;93.32;92779.28;5066614;28;20168;-68
2023/07/06 05:00:39;;;;;;;17.00;15.40;;;;;;;22.91;92.59;92777.38;5058372;28;20233;-69
2023/07/06 05:03:07;;;;;;;16.15;14.75;;;;;;;23.28;88.68;92781.19;5058780;28;20251;-70
2023/07/06 05:05:40;;;;;;;16.60;15.00;;;;;;;23.30;89.03;92786.91;5058382;28;20950;-70
2023/07/06 05:08:07;;;;;;;16.23;14.73;;;;;;;22.73;91.25;92778.91;5058104;28;20188;-71
2023/07/06 05:10:34;;;;;;;16.13;14.55;;;;;;;22.92;90.13;92784.25;5060458;28;21012;-70
2023/07/06 05:13:00;;;;;;;15.55;14.23;;;;;;;22.82;91.68;92782.13;5057973;28;20228;-71
2023/07/06 05:15:26;;;;;;;16.27;14.75;;;;;;;22.67;93.03;92785.63;5057707;28;20245;-69
2023/07/06 05:17:53;;;;;;;16.85;14.48;;;;;;;23.05;90.87;92790.97;5065389;28;20205;-70
2023/07/06 05:20:20;;;;;;;15.80;14.30;;;;;;;22.13;94.01;92756.25;5066657;28;20219;-74
2023/07/06 05:22:48;;;;;;;17.13;15.18;;;;;;;22.92;91.72;92792.25;5061853;28;21012;-74
2023/07/06 05:25:17;;;;;;;16.73;15.27;;;;;;;22.82;93.12;92792.78;5069624;28;20221;-75
2023/07/06 05:27:43;;;;;;;17.52;15.65;;;;;;;22.83;91.83;92793.56;5063246;28;20187;-74
2023/07/06 05:30:10;;;;;;;18.45;16.52;;;;;;;22.84;92.14;92800.41;5066183;28;20219;-74
2023/07/06 05:32:35;;;;;;;17.23;15.63;;;;;;;23.12;88.56;92807.09;5063019;28;20184;-74
2023/07/06 05:35:01;;;;;;;17.33;15.70;;;;;;;23.38;88.24;92815.25;5069901;28;20303;-74
2023/07/06 05:37:26;;;;;;;17.02;14.82;;;;;;;23.35;87.30;92817.84;5070621;28;20203;-74
2023/07/06 05:39:52;;;;;;;16.35;14.73;;;;;;;24.62;83.25;92820.81;5069071;28;20227;-74
2023/07/06 05:42:17;;;;;;;16.38;14.77;;;;;;;27.52;71.11;92834.72;5069747;28;20196;-74
2023/07/06 05:44:44;;;;;;;15.60;14.02;;;;;;;29.13;62.61;92824.16;5069290;28;20227;-74
2023/07/06 05:47:09;;;;;;;14.38;12.90;;;;;;;30.26;57.45;92829.09;5069138;28;20191;-74
2023/07/06 05:49:35;;;;;;;15.88;14.05;;;;;;;31.98;51.56;92833.59;5055879;28;20217;-74
2023/07/06 05:52:01;;;;;;;14.80;13.52;;;;;;;30.97;53.76;92830.84;5069676;28;20846;-74
2023/07/06 05:54:27;;;;;;;14.55;13.32;;;;;;;31.34;52.23;92835.50;5069327;28;20205;-75
2023/07/06 05:56:55;;;;;;;13.23;11.98;;;;;;;32.48;47.46;92845.25;5069819;28;20786;-74
2023/07/06 05:59:21;;;;;;;14.75;13.30;;;;;;;31.63;49.79;92839.41;5070340;28;20174;-74
2023/07/06 06:01:46;;;;;;;14.30;12.80;;;;;;;32.10;49.53;92841.13;5068662;28;20212;-74
2023/07/06 06:04:12;;;;;;;13.70;12.32;;;;;;;33.07;47.22;92842.78;5069729;28;20241;-74
2023/07/06 06:06:54;;;;;;;13.60;12.30;;;;;;;34.29;43.67;92849.69;5070327;28;20196;-75
2023/07/06 06:09:21;;;;;;;13.55;12.25;;;;;;;33.72;45.43;92839.25;5040841;28;20193;-74
2023/07/06 06:11:48;;;;;;;12.50;11.38;;;;;;;35.37;41.58;92849.09;5052497;28;20252;-74
2023/07/06 06:14:15;;;;;;;11.63;10.63;;;;;;;35.91;40.29;92856.59;5069887;28;20205;-74
2023/07/06 06:16:40;;;;;;;11.95;10.95;;;;;;;35.63;39.66;92846.47;5069871;28;20196;-75
2023/07/06 06:19:06;;;;;;;11.20;10.10;;;;;;;32.82;43.70;92849.75;5069842;28;20205;-75
2023/07/06 06:21:33;;;;;;;11.52;10.40;;;;;;;35.09;40.44;92849.78;5069889;28;20213;-69
2023/07/06 06:23:59;;;;;;;11.25;10.35;;;;;;;34.56;41.87;92850.28;5065144;28;20217;-65
2023/07/06 06:26:25;;;;;;;11.90;10.80;;;;;;;34.52;41.56;92851.53;5069202;28;20223;-65
2023/07/06 06:28:51;;;;;;;13.15;11.80;;;;;;;32.13;47.38;92829.50;5070267;28;20300;-65
2023/07/06 06:31:17;;;;;;;12.63;11.38;;;;;;;34.07;44.33;92843.97;5065758;28;20237;-68
2023/07/06 06:33:44;;;;;;;13.10;11.63;;;;;;;35.23;40.76;92843.22;5070667;28;20239;-67
2023/07/06 06:36:16;;;;;;;12.68;11.45;;;;;;;35.90;39.40;92844.97;5066540;28;20251;-67
2023/07/06 06:38:42;;;;;;;11.95;10.68;;;;;;;35.68;39.45;92838.56;5059577;28;20213;-68
2023/07/06 06:41:08;;;;;;;12.07;10.80;;;;;;;34.79;40.57;92844.69;5068687;28;20221;-68
2023/07/06 06:43:38;;;;;;;11.57;10.48;;;;;;;34.81;41.10;92836.88;5071792;28;20193;-66
2023/07/06 06:46:08;;;;;;;11.13;9.93;;;;;;;35.02;40.23;92825.53;5069441;28;20213;-65
2023/07/06 06:48:34;;;;;;;11.02;9.95;;;;;;;35.58;38.64;92832.22;5070669;28;20186;-69
2023/07/06 06:51:01;;;;;;;11.23;10.35;;;;;;;33.79;41.59;92824.81;5081869;28;20293;-65
2023/07/06 06:53:27;;;;;;;11.25;10.25;;;;;;;31.59;47.82;92825.19;5069678;28;20276;-66
2023/07/06 06:55:54;;;;;;;12.20;11.10;;;;;;;31.16;48.61;92810.59;5064525;28;20222;-68
2023/07/06 06:58:24;;;;;;;13.90;12.60;;;;;;;28.84;55.63;92798.44;5070764;28;20177;-68
2023/07/06 07:01:00;;;;;;;12.98;11.85;;;;;;;27.58;62.57;92801.03;5070234;28;20238;-68
2023/07/06 07:03:28;;;;;;;13.43;12.13;;;;;;;26.93;64.70;92800.34;5069591;28;20201;-68
2023/07/06 07:06:14;;;;;;;13.38;12.13;;;;;;;26.38;68.43;92789.59;5068575;28;20227;-68
2023/07/06 07:08:49;;;;;;;13.90;12.73;;;;;;;26.60;67.59;92795.88;5068955;28;20213;-68
2023/07/06 07:11:19;;;;;;;14.70;13.50;;;;;;;25.33;73.25;92793.13;5068586;28;20212;-68
2023/07/06 07:13:44;;;;;;;13.85;12.80;;;;;;;25.49;70.88;92780.34;5073142;28;20233;-67
2023/07/06 07:16:11;;;;;;;17.70;15.90;;;;;;;24.46;75.08;92775.56;5063101;28;20221;-67
2023/07/06 07:18:38;;;;;;;14.10;12.75;;;;;;;25.38;73.75;92795.50;5071284;28;20225;-69
2023/07/06 07:21:04;;;;;;;15.00;13.60;;;;;;;25.35;72.70;92780.97;5067757;28;20213;-70
2023/07/06 07:23:35;;;;;;;13.80;12.35;;;;;;;25.05;78.42;92794.34;5069601;28;20208;-69
2023/07/06 07:26:03;;;;;;;14.45;13.10;;;;;;;25.20;74.45;92789.91;5068222;28;20977;-70
2023/07/06 07:28:28;;;;;;;14.30;12.75;;;;;;;25.47;69.63;92788.75;5071856;28;20184;-69
2023/07/06 07:30:58;;;;;;;13.35;12.27;;;;;;;25.26;72.27;92797.25;5068145;28;20919;-69
2023/07/06 07:33:26;;;;;;;14.95;13.65;;;;;;;25.53;68.44;92797.97;5070399;28;20181;-70
2023/07/06 07:35:51;;;;;;;14.55;13.15;;;;;;;24.55;72.99;92785.97;5067482;28;20212;-69
2023/07/06 07:38:19;;;;;;;13.50;12.30;;;;;;;25.12;71.76;92799.00;5066621;28;20184;-68
2023/07/06 07:40:59;;;;;;;13.20;12.13;;;;;;;25.14;71.12;92791.38;5067877;28;20228;-67
2023/07/06 07:43:33;;;;;;;15.10;13.68;;;;;;;25.51;66.85;92791.47;5056484;28;20176;-69
2023/07/06 07:46:06;;;;;;;14.38;13.02;;;;;;;25.41;69.12;92800.13;5068492;28;20232;-69
2023/07/06 07:48:34;;;;;;;13.35;12.32;;;;;;;25.39;69.58;92797.06;5067014;28;20240;-69
2023/07/06 07:51:03;;;;;;;13.43;12.43;;;;;;;24.71;72.25;92792.75;5070432;28;20251;-69
2023/07/06 07:53:37;;;;;;;13.93;12.82;;;;;;;25.64;69.60;92798.84;5068049;28;20185;-69
2023/07/06 07:56:05;;;;;;;14.77;13.57;;;;;;;25.61;70.40;92798.81;5066538;28;20216;-69
2023/07/06 07:58:33;;;;;;;14.98;13.75;;;;;;;25.64;70.24;92796.19;5071312;28;20913;-69
2023/07/06 08:01:00;;;;;;;13.98;12.88;;;;;;;25.71;72.01;92792.81;5068149;28;20255;-68
2023/07/06 08:03:27;;;;;;;15.32;14.02;;;;;;;25.77;69.85;92794.78;5068276;28;20494;-68
2023/07/06 08:05:57;;;;;;;14.80;13.65;;;;;;;25.96;67.54;92799.91;5071908;28;20229;-75
2023/07/06 08:08:23;;;;;;;15.45;14.15;;;;;;;25.33;72.08;92793.94;5087828;28;20181;-75
2023/07/06 08:10:49;;;;;;;14.65;13.45;;;;;;;25.79;70.50;92792.50;5070645;28;20236;-75
2023/07/06 08:13:15;;;;;;;14.75;13.45;;;;;;;25.29;72.30;92790.44;5065919;28;20217;-75
2023/07/06 08:15:41;;;;;;;13.82;12.43;;;;;;;25.46;76.70;92792.56;5072199;28;20251;-75
2023/07/06 08:18:06;;;;;;;14.73;13.45;;;;;;;25.78;69.45;92787.50;5071991;28;20197;-75
2023/07/06 08:20:33;;;;;;;15.00;13.52;;;;;;;25.73;70.26;92787.88;5072650;28;20223;-74
2023/07/06 08:23:02;;;;;;;15.00;13.70;;;;;;;26.01;69.00;92790.84;5071466;28;20184;-75
2023/07/06 08:25:28;;;;;;;15.82;14.43;;;;;;;25.00;71.21;92796.53;5075246;28;20238;-74
2023/07/06 08:27:56;;;;;;;15.18;13.63;;;;;;;25.59;71.72;92785.06;5066096;28;20184;-74
2023/07/06 08:30:22;;;;;;;15.38;14.07;;;;;;;26.13;68.47;92793.22;5071429;28;20229;-75
2023/07/06 08:32:48;;;;;;;15.07;13.77;;;;;;;25.94;68.43;92791.50;5071980;28;20181;-75
2023/07/06 08:35:18;;;;;;;15.68;14.38;;;;;;;26.43;66.10;92791.94;5071149;28;20217;-74
2023/07/06 08:37:44;;;;;;;14.82;13.60;;;;;;;26.42;63.59;92784.28;5067602;28;20183;-74
2023/07/06 08:40:17;;;;;;;15.68;14.40;;;;;;;25.84;67.79;92791.41;5070559;28;20225;-74
2023/07/06 08:42:48;;;;;;;16.27;14.48;;;;;;;25.34;68.87;92794.72;5071444;28;20224;-74
2023/07/06 08:45:30;;;;;;;15.77;14.23;;;;;;;26.41;66.95;92783.50;5067565;28;20229;-75
2023/07/06 08:47:56;;;;;;;14.80;13.15;;;;;;;26.46;67.93;92791.19;5070656;28;20196;-74
2023/07/06 08:50:28;;;;;;;14.85;13.55;;;;;;;26.06;70.83;92793.94;5073871;28;20217;-75
2023/07/06 08:52:56;;;;;;;15.48;14.07;;;;;;;26.48;66.76;92788.91;5070170;28;20209;-75
2023/07/06 08:55:22;;;;;;;15.27;13.88;;;;;;;26.51;65.40;92776.69;5071128;28;20255;-74
2023/07/06 08:57:49;;;;;;;13.95;12.65;;;;;;;26.49;64.89;92793.13;5071167;28;20186;-75
2023/07/06 09:00:25;;;;;;;14.90;13.38;;;;;;;26.61;65.60;92789.38;5077236;28;20213;-74
2023/07/06 09:02:57;;;;;;;20.08;13.23;;;;;;;26.88;64.18;92796.06;5070530;28;20189;-75
2023/07/06 09:05:31;;;;;;;15.20;13.70;;;;;;;26.94;63.86;92786.56;5070600;28;20228;-75
2023/07/06 09:07:57;;;;;;;14.80;13.10;;;;;;;26.68;65.48;92798.25;5047475;28;20207;-74
2023/07/06 09:10:28;;;;;;;14.52;13.10;;;;;;;26.82;64.56;92797.56;5068335;28;20217;-76
2023/07/06 09:12:56;;;;;;;14.52;13.10;;;;;;;25.96;69.50;92793.81;5062598;28;20243;-75
2023/07/06 09:15:30;;;;;;;14.85;13.57;;;;;;;26.61;67.52;92798.19;5058442;28;20221;-76
2023/07/06 09:17:59;;;;;;;16.02;14.63;;;;;;;25.97;68.42;92793.44;5071427;28;20184;-76
2023/07/06 09:20:26;;;;;;;14.68;13.40;;;;;;;25.56;66.42;92797.22;5070518;28;20217;-72
2023/07/06 09:22:51;;;;;;;15.38;13.57;;;;;;;25.64;70.89;92792.72;5070722;28;20188;-73
2023/07/06 09:25:25;;;;;;;16.05;14.48;;;;;;;25.40;68.96;92794.03;5069280;28;20220;-73
2023/07/06 09:27:51;;;;;;;16.10;14.45;;;;;;;26.17;63.26;92783.31;5070687;28;20174;-73
2023/07/06 09:30:29;;;;;;;16.13;13.98;;;;;;;25.78;69.05;92793.63;5070039;28;20224;-73
2023/07/06 09:33:04;;;;;;;15.93;14.48;;;;;;;25.51;67.94;92791.47;5075201;28;20177;-73
2023/07/06 09:35:29;;;;;;;14.75;13.40;;;;;;;25.95;67.38;92787.69;5070378;28;20224;-74
2023/07/06 09:37:55;;;;;;;17.35;14.80;;;;;;;26.14;62.56;92750.03;5070331;28;20269;-73
2023/07/06 09:40:28;;;;;;;15.20;13.63;;;;;;;26.02;66.16;92781.66;5069492;28;20213;-68
2023/07/06 09:42:53;;;;;;;15.82;14.20;;;;;;;26.16;67.42;92782.56;5061067;28;20198;-67
2023/07/06 09:45:22;;;;;;;14.93;13.43;;;;;;;25.54;66.96;92778.13;5060711;28;20257;-67
2023/07/06 09:47:54;;;;;;;14.65;13.32;;;;;;;25.34;69.32;92782.09;5065437;28;20754;-66
2023/07/06 09:50:23;;;;;;;15.10;13.73;;;;;;;25.73;69.31;92777.91;5053718;28;21012;-67
2023/07/06 09:52:49;;;;;;;15.23;13.82;;;;;;;25.57;65.59;92780.06;5068264;28;21045;-65
2023/07/06 09:55:29;;;;;;;15.43;14.00;;;;;;;25.09;66.79;92783.69;5068148;28;20233;-67
2023/07/06 09:57:55;;;;;;;16.02;13.23;;;;;;;25.46;67.39;92784.53;5069977;28;20189;-67
2023/07/06 10:00:29;;;;;;;17.42;14.55;;;;;;;25.19;69.90;92767.78;5069485;28;20231;-67
2023/07/06 10:03:03;;;;;;;16.13;14.57;;;;;;;24.89;72.26;92769.69;5052570;28;20200;-68
2023/07/06 10:05:59;;;;;;;16.70;15.07;;;;;;;25.07;71.53;92773.34;5053544;28;20259;-69
2023/07/06 10:08:34;;;;;;;15.23;14.02;;;;;;;24.52;74.08;92771.47;5062393;28;20181;-69
2023/07/06 10:11:30;;;;;;;16.52;13.63;;;;;;;24.74;76.99;92776.00;5067136;28;20228;-69
2023/07/06 10:14:05;;;;;;;16.55;14.95;;;;;;;24.84;79.88;92782.63;5056285;28;20233;-69
2023/07/06 10:16:36;;;;;;;15.63;14.25;;;;;;;24.76;83.05;92776.38;5066620;28;20236;-70
2023/07/06 10:19:09;;;;;;;16.20;14.65;;;;;;;24.77;86.14;92777.94;5060739;28;20201;-69
2023/07/06 10:21:46;;;;;;;15.52;14.23;;;;;;;25.23;79.82;92784.63;5063901;28;20251;-68
2023/07/06 10:24:30;;;;;;;15.48;13.95;;;;;;;25.00;80.74;92796.53;5065095;28;20181;-69
2023/07/06 10:26:59;;;;;;;20.38;14.90;;;;;;;25.01;81.81;92784.75;5059905;28;20232;-70
2023/07/06 10:29:45;;;;;;;16.15;14.52;;;;;;;24.80;83.76;92787.13;5064165;28;20220;-69
2023/07/06 10:32:42;;;;;;;16.55;14.82;;;;;;;25.14;83.39;92786.03;5063955;28;20212;-69
2023/07/06 10:35:28;;;;;;;17.70;15.93;;;;;;;25.31;81.89;92784.72;5064640;28;20426;-75
2023/07/06 10:37:54;;;;;;;17.00;15.43;;;;;;;25.30;81.58;92783.94;5068010;28;20757;-68
2023/07/06 10:40:24;;;;;;;15.27;13.82;;;;;;;25.27;82.17;92782.00;5058170;28;20652;-72
2023/07/06 10:43:18;;;;;;;14.73;13.38;;;;;;;25.00;82.82;92775.16;5063032;28;20190;-68
2023/07/06 10:45:45;;;;;;;15.57;14.05;;;;;;;24.95;83.37;92784.28;5064247;28;20244;-67
2023/07/06 10:48:16;;;;;;;16.48;14.35;;;;;;;25.27;82.00;92784.66;5043799;28;20181;-72
2023/07/06 10:50:56;;;;;;;15.57;14.00;;;;;;;25.33;81.85;92796.59;5061462;28;20256;-68
2023/07/06 10:53:40;;;;;;;15.20;13.95;;;;;;;25.26;81.46;92777.78;5063153;28;20220;-68
2023/07/06 10:56:12;;;;;;;14.27;13.05;;;;;;;25.20;80.00;92782.69;5084347;28;20220;-69
2023/07/06 10:58:48;;;;;;;15.65;14.30;;;;;;;25.11;81.54;92786.75;5067068;28;20246;-69
2023/07/06 11:01:17;;;;;;;14.50;13.23;;;;;;;24.97;81.56;92775.91;5050757;28;20229;-69
2023/07/06 11:03:43;;;;;;;14.70;13.48;;;;;;;24.87;82.53;92771.19;5068510;28;20197;-70
2023/07/06 11:06:41;;;;;;;15.38;14.07;;;;;;;25.08;81.84;92768.78;5076336;28;20286;-68
2023/07/06 11:09:08;;;;;;;14.40;13.10;;;;;;;25.29;79.94;92766.38;5062288;28;20204;-68
2023/07/06 11:11:38;;;;;;;15.40;14.10;;;;;;;25.65;78.20;92760.25;5066228;28;20213;-69
2023/07/06 11:14:19;;;;;;;14.35;13.10;;;;;;;25.78;78.18;92750.84;5070769;28;20217;-68
2023/07/06 11:16:57;;;;;;;13.95;12.75;;;;;;;26.19;76.26;92759.63;5071154;28;20205;-68
2023/07/06 11:19:28;;;;;;;14.27;12.75;;;;;;;26.15;76.22;92759.59;5070223;28;20192;-68
2023/07/06 11:21:59;;;;;;;14.90;13.50;;;;;;;26.02;76.34;92758.34;5069810;28;20224;-69
2023/07/06 11:24:32;;;;;;;14.40;12.80;;;;;;;26.27;75.30;92756.63;5076763;28;20207;-69
2023/07/06 11:27:04;;;;;;;16.50;13.82;;;;;;;26.46;75.03;92759.06;5084197;28;20221;-70